Queimadas, Brazil
Current Conditions -  °F | °C
As of 6:00 AM on Sunday 21 Dec 2014 (Local Time) from SBKG Reporting Station
Broken Clouds Broken Clouds  
Wind Chill: 72°   Ceiling: 1500
Heat Index: 72°   Visibility: 4mi
Dew Point: 70°   Wind: 6mph
Humidity: 94%   Direction: 90°E
Pressure: 30"   Gusts: NA
Location:  7.36°S, 35.9°W
Report Text: SBKG 210900Z 09005KT 6000 SCT010 BKN015 22/21 Q1016
Loading
Personal Weather Stations






























Interactive Weather Map New forecast layout! Learn more

10-Day Weather Forecast

Advertisements
Track Severe Weather on mobile